Radiosonde details



Informationen :

Serial : D26003276
Type : Graw DFM
Frequency : 403.010MHz
Launchsite : Tampa Bay Area
Nearest town : Redington Beach, US (5km)

Altitude (Max) : 33337m at 2026-09-05 13:00:55
Speed (Max) : 104km/h at altitude 31543m

Average speed : 29km/h
Average ascent rate : 5m/s
Average descent rate : -8m/s
Ascent rate (Max) : 9.8m/s
Descent rate (Max): -34.7m/s

First frame :
ARGUS2 at 2026-09-05 11:16:33 at altitude 1813m (OG: 1754m)
Last frame :
ARGUS2 at 2026-09-05 14:11:08 at altitude 567m (OG: 525m)

Flighttime : 2h54m35s
Ascent time : 1h44m22s
Descent time : 1h10m13s
Uptime : -
Killtimer : -

Distance (Straight line distance): 45km

Distance (Route):


Frames : 452


Measurement :

Temperature : 24.8°C
Humidity : 0%
Pressure : 0hPa


Vertical profile (SkewT) :


Elevation profile :



Receiving stations :


Receiver Frames First received Last received
ARGUS2 452 2026-09-05 11:16:33 2026-09-05 14:11:08

Share per receiver :



All frames :


Receiver Date Latitude Longitude Direction Speed Altitude Climb Temperature Humidity Pressure Voltage Killtimer Uptime BKT XDATA
ARGUS22026-09-05 14:11:0827.77773-82.8475545°13km/h567m-4.6m/s24.8°C0%0hPa0V00:00:0000:00:0000:00:00
ARGUS22026-09-05 14:10:4627.77722-82.8480843°11km/h662m-4.2m/s24.1°C0%0hPa0V00:00:0000:00:0000:00:00
ARGUS22026-09-05 14:10:2527.77670-82.8486147°15km/h753m-4.4m/s23.5°C0%0hPa0V00:00:0000:00:0000:00:00
ARGUS22026-09-05 14:10:0527.77620-82.8492352°15km/h849m-4.8m/s22.8°C0%0hPa0V00:00:0000:00:0000:00:00
ARGUS22026-09-05 14:09:4327.77579-82.8500267°16km/h947m-4.5m/s22.4°C0%0hPa0V00:00:0000:00:0000:00:00
ARGUS22026-09-05 14:09:2327.77541-82.8508459°16km/h1039m-4.9m/s21.8°C0%0hPa0V00:00:0000:00:0000:00:00
ARGUS22026-09-05 14:08:4227.77456-82.8528070°20km/h1235m-4.8m/s20.8°C0%0hPa0V00:00:0000:00:0000:00:00
ARGUS22026-09-05 14:08:2227.77414-82.8538868°20km/h1334m-4.7m/s20.5°C0%0hPa0V00:00:0000:00:0000:00:00
ARGUS22026-09-05 14:08:0127.77374-82.8549369°18km/h1431m-4.6m/s20.1°C0%0hPa0V00:00:0000:00:0000:00:00
ARGUS22026-09-05 14:07:4027.77337-82.8560373°20km/h1532m-4.6m/s19.5°C0%0hPa0V00:00:0000:00:0000:00:00
ARGUS22026-09-05 14:07:2027.77305-82.8571269°20km/h1632m-4.7m/s18.9°C0%0hPa0V00:00:0000:00:0000:00:00
ARGUS22026-09-05 14:06:5927.77265-82.8582270°20km/h1732m-4.7m/s18.8°C0%0hPa0V00:00:0000:00:0000:00:00
ARGUS22026-09-05 14:06:3427.77216-82.8595867°22km/h1852m-5.1m/s18.0°C0%0hPa0V00:00:0000:00:0000:00:00
ARGUS22026-09-05 14:04:3827.77016-82.8647854°16km/h2463m-5.3m/s14.8°C0%0hPa0V00:00:0000:00:0000:00:00
ARGUS22026-09-05 14:04:0327.76925-82.8659347°18km/h2642m-5.2m/s13.5°C0%0hPa0V00:00:0000:00:0000:00:00
ARGUS22026-09-05 14:03:4327.76859-82.8666142°16km/h2751m-5.3m/s12.7°C0%0hPa0V00:00:0000:00:0000:00:00
ARGUS22026-09-05 14:03:1827.76781-82.8673334°16km/h2888m-5.3m/s11.8°C0%0hPa0V00:00:0000:00:0000:00:00
ARGUS22026-09-05 14:02:5727.76716-82.8678642°16km/h2994m-5.3m/s11.2°C0%0hPa0V00:00:0000:00:0000:00:00
ARGUS22026-09-05 14:02:3727.76658-82.8684041°13km/h3102m-5.1m/s10.6°C0%0hPa0V00:00:0000:00:0000:00:00
ARGUS22026-09-05 14:02:1527.76603-82.8688436°13km/h3210m-5.1m/s9.8°C0%0hPa0V00:00:0000:00:0000:00:00
ARGUS22026-09-05 14:01:5527.76553-82.8692335°13km/h3312m-5.1m/s9.7°C0%0hPa0V00:00:0000:00:0000:00:00
ARGUS22026-09-05 14:01:3427.76490-82.8696732°13km/h3419m-5.0m/s8.9°C0%0hPa0V00:00:0000:00:0000:00:00
ARGUS22026-09-05 14:01:1427.76442-82.8699929°11km/h3520m-5.1m/s8.0°C0%0hPa0V00:00:0000:00:0000:00:00
ARGUS22026-09-05 14:00:5327.76385-82.8702616°11km/h3627m-5.1m/s7.5°C0%0hPa0V00:00:0000:00:0000:00:00
ARGUS22026-09-05 14:00:3327.76333-82.8704827°9km/h3730m-5.1m/s6.9°C0%0hPa0V00:00:0000:00:0000:00:00
ARGUS22026-09-05 14:00:1327.76291-82.8706520°7km/h3840m-5.1m/s6.2°C0%0hPa0V00:00:0000:00:0000:00:00
ARGUS22026-09-05 13:59:5227.76259-82.8708119°5km/h3942m-5.0m/s5.5°C0%0hPa0V00:00:0000:00:0000:00:00
ARGUS22026-09-05 13:59:3127.76227-82.8709832°7km/h4052m-5.4m/s4.9°C0%0hPa0V00:00:0000:00:0000:00:00
ARGUS22026-09-05 13:59:1127.76200-82.8711830°5km/h4159m-5.5m/s4.3°C0%0hPa0V00:00:0000:00:0000:00:00
ARGUS22026-09-05 13:58:5027.76182-82.8713351°4km/h4274m-5.4m/s3.5°C0%0hPa0V00:00:0000:00:0000:00:00
ARGUS22026-09-05 13:58:3027.76170-82.8715675°4km/h4384m-5.6m/s2.7°C0%0hPa0V00:00:0000:00:0000:00:00
ARGUS22026-09-05 13:58:1027.76166-82.871730km/h4500m-5.2m/s1.8°C0%0hPa0V00:00:0000:00:0000:00:00
ARGUS22026-09-05 13:57:4827.76159-82.8718267°2km/h4614m-5.6m/s1.0°C0%0hPa0V00:00:0000:00:0000:00:00
ARGUS22026-09-05 13:57:2727.76156-82.8720185°4km/h4734m-5.4m/s0.1°C0%0hPa0V00:00:0000:00:0000:00:00
ARGUS22026-09-05 13:57:0627.76158-82.8722988°5km/h4844m-5.3m/s-0.4°C0%0hPa0V00:00:0000:00:0000:00:00
ARGUS22026-09-05 13:56:4627.76152-82.8726770°7km/h4961m-5.4m/s-1.1°C0%0hPa0V00:00:0000:00:0000:00:00
ARGUS22026-09-05 13:56:2527.76140-82.8730379°5km/h5073m-5.2m/s-2.0°C0%0hPa0V00:00:0000:00:0000:00:00
ARGUS22026-09-05 13:56:0527.76137-82.8734076°7km/h5191m-5.6m/s-2.8°C0%0hPa0V00:00:0000:00:0000:00:00
ARGUS22026-09-05 13:55:4427.76122-82.8737862°7km/h5302m-5.4m/s-3.5°C0%0hPa0V00:00:0000:00:0000:00:00
ARGUS22026-09-05 13:55:2327.76092-82.8741748°9km/h5418m-5.5m/s-4.4°C0%0hPa0V00:00:0000:00:0000:00:00
ARGUS22026-09-05 13:55:0227.76067-82.8746675°11km/h5533m-5.5m/s-4.8°C0%0hPa0V00:00:0000:00:0000:00:00
ARGUS22026-09-05 13:54:4227.76049-82.8754274°13km/h5643m-5.4m/s-5.3°C0%0hPa0V00:00:0000:00:0000:00:00
ARGUS22026-09-05 13:54:2227.76020-82.8762074°15km/h5756m-5.2m/s-5.6°C0%0hPa0V00:00:0000:00:0000:00:00
ARGUS22026-09-05 13:54:0127.75998-82.8769362°13km/h5863m-5.1m/s-6.2°C0%0hPa0V00:00:0000:00:0000:00:00
ARGUS22026-09-05 13:53:4027.75966-82.8776367°13km/h5976m-5.3m/s-6.5°C0%0hPa0V00:00:0000:00:0000:00:00
ARGUS22026-09-05 13:53:2027.75930-82.8784565°16km/h6083m-5.2m/s-6.9°C0%0hPa0V00:00:0000:00:0000:00:00
ARGUS22026-09-05 13:52:5927.75879-82.8792847°18km/h6194m-5.4m/s-7.4°C0%0hPa0V00:00:0000:00:0000:00:00
ARGUS22026-09-05 13:52:3927.75816-82.8799949°16km/h6302m-5.5m/s-7.9°C0%0hPa0V00:00:0000:00:0000:00:00
ARGUS22026-09-05 13:52:1927.75768-82.8806046°9km/h6424m-5.6m/s-8.5°C0%0hPa0V00:00:0000:00:0000:00:00
ARGUS22026-09-05 13:51:5827.75735-82.8809239°7km/h6534m-5.8m/s-8.8°C0%0hPa0V00:00:0000:00:0000:00:00
ARGUS22026-09-05 13:51:3827.75710-82.8812355°7km/h6657m-5.3m/s-9.3°C0%0hPa0V00:00:0000:00:0000:00:00
ARGUS22026-09-05 13:51:1727.75692-82.8816280°9km/h6771m-5.8m/s-10.0°C0%0hPa0V00:00:0000:00:0000:00:00
ARGUS22026-09-05 13:50:5727.75686-82.8822594°11km/h6895m-5.8m/s-11.0°C0%0hPa0V00:00:0000:00:0000:00:00
ARGUS22026-09-05 13:50:3527.75683-82.8828777°9km/h7024m-6.2m/s-11.7°C0%0hPa0V00:00:0000:00:0000:00:00
ARGUS22026-09-05 13:50:1527.75680-82.8834291°9km/h7150m-6.1m/s-12.8°C0%0hPa0V00:00:0000:00:0000:00:00
ARGUS22026-09-05 13:49:5427.75677-82.8839778°9km/h7286m-6.2m/s-13.7°C0%0hPa0V00:00:0000:00:0000:00:00
ARGUS22026-09-05 13:49:3427.75664-82.8843762°7km/h7415m-6.0m/s-14.6°C0%0hPa0V00:00:0000:00:0000:00:00
ARGUS22026-09-05 13:49:1327.75652-82.8846566°4km/h7553m-6.1m/s-15.7°C0%0hPa0V00:00:0000:00:0000:00:00
ARGUS22026-09-05 13:48:5327.75636-82.88477356°5km/h7686m-6.6m/s-16.6°C0%0hPa0V00:00:0000:00:0000:00:00
ARGUS22026-09-05 13:48:3227.75606-82.88466327°5km/h7829m-6.7m/s-17.5°C0%0hPa0V00:00:0000:00:0000:00:00
ARGUS22026-09-05 13:48:1227.75584-82.88450334°4km/h7967m-6.6m/s-18.5°C0%0hPa0V00:00:0000:00:0000:00:00
ARGUS22026-09-05 13:47:5127.75567-82.88437297°4km/h8105m-6.4m/s-19.6°C0%0hPa0V00:00:0000:00:0000:00:00
ARGUS22026-09-05 13:47:3127.75549-82.88410316°7km/h8234m-6.4m/s-20.6°C0%0hPa0V00:00:0000:00:0000:00:00
ARGUS22026-09-05 13:46:4927.75490-82.88377333°5km/h8496m-6.1m/s-21.9°C0%0hPa0V00:00:0000:00:0000:00:00
ARGUS22026-09-05 13:46:2827.75465-82.88371358°2km/h8623m-6.1m/s-22.9°C0%0hPa0V00:00:0000:00:0000:00:00
ARGUS22026-09-05 13:46:0627.75456-82.88365332°2km/h8761m-6.1m/s-24.0°C0%0hPa0V00:00:0000:00:0000:00:00
ARGUS22026-09-05 13:45:4227.75466-82.88358228°4km/h8898m-5.8m/s-24.7°C0%0hPa0V00:00:0000:00:0000:00:00
ARGUS22026-09-05 13:45:2227.75474-82.88337292°4km/h9014m-5.7m/s-25.5°C0%0hPa0V00:00:0000:00:0000:00:00
ARGUS22026-09-05 13:45:0127.75448-82.88311327°11km/h9139m-6.0m/s-25.7°C0%0hPa0V00:00:0000:00:0000:00:00
ARGUS22026-09-05 13:44:4027.75399-82.88260309°11km/h9267m-6.2m/s-26.4°C0%0hPa0V00:00:0000:00:0000:00:00
ARGUS22026-09-05 13:44:2027.75371-82.88203290°11km/h9400m-6.2m/s-27.6°C0%0hPa0V00:00:0000:00:0000:00:00
ARGUS22026-09-05 13:43:5127.75339-82.88108297°16km/h9590m-6.7m/s-28.9°C0%0hPa0V00:00:0000:00:0000:00:00
ARGUS22026-09-05 13:43:2227.75275-82.88010318°13km/h9757m-5.5m/s-30.3°C0%0hPa0V00:00:0000:00:0000:00:00
ARGUS22026-09-05 13:43:0127.75222-82.87948312°15km/h9879m-5.4m/s-31.3°C0%0hPa0V00:00:0000:00:0000:00:00
ARGUS22026-09-05 13:42:4027.75175-82.87888313°15km/h9993m-5.5m/s-32.4°C0%0hPa0V00:00:0000:00:0000:00:00
ARGUS22026-09-05 13:42:2027.75133-82.87817295°15km/h10111m-5.8m/s-33.3°C0%0hPa0V00:00:0000:00:0000:00:00
ARGUS22026-09-05 13:41:5827.75099-82.87733296°15km/h10230m-5.5m/s-34.1°C0%0hPa0V00:00:0000:00:0000:00:00
ARGUS22026-09-05 13:41:3827.75066-82.87666301°13km/h10342m-5.8m/s-35.2°C0%0hPa0V00:00:0000:00:0000:00:00
ARGUS22026-09-05 13:41:1727.75023-82.87610320°11km/h10460m-6.0m/s-36.2°C0%0hPa0V00:00:0000:00:0000:00:00
ARGUS22026-09-05 13:40:5727.74965-82.87575346°16km/h10574m-5.8m/s-37.2°C0%0hPa0V00:00:0000:00:0000:00:00
ARGUS22026-09-05 13:40:3627.74889-82.87555360°11km/h10695m-5.8m/s-37.7°C0%0hPa0V00:00:0000:00:0000:00:00
ARGUS22026-09-05 13:40:1627.74838-82.8756610°11km/h10809m-5.6m/s-38.3°C0%0hPa0V00:00:0000:00:0000:00:00
ARGUS22026-09-05 13:39:5527.74771-82.8757911°13km/h10930m-5.8m/s-39.4°C0%0hPa0V00:00:0000:00:0000:00:00
ARGUS22026-09-05 13:39:3527.74699-82.8759719°16km/h11046m-5.6m/s-40.3°C0%0hPa0V00:00:0000:00:0000:00:00
ARGUS22026-09-05 13:39:1527.74601-82.8763521°22km/h11167m-5.8m/s-41.2°C0%0hPa0V00:00:0000:00:0000:00:00
ARGUS22026-09-05 13:38:5427.74490-82.8768523°24km/h11281m-5.4m/s-41.9°C0%0hPa0V00:00:0000:00:0000:00:00
ARGUS22026-09-05 13:38:3427.74377-82.8774530°24km/h11400m-5.7m/s-42.8°C0%0hPa0V00:00:0000:00:0000:00:00
ARGUS22026-09-05 13:38:1327.74272-82.8781737°24km/h11513m-5.5m/s-43.8°C0%0hPa0V00:00:0000:00:0000:00:00
ARGUS22026-09-05 13:37:5327.74179-82.8790447°22km/h11631m-5.8m/s-44.6°C0%0hPa0V00:00:0000:00:0000:00:00
ARGUS22026-09-05 13:37:3227.74097-82.8799542°22km/h11743m-5.5m/s-45.0°C0%0hPa0V00:00:0000:00:0000:00:00
ARGUS22026-09-05 13:37:1227.74012-82.8807636°20km/h11862m-5.7m/s-46.0°C0%0hPa0V00:00:0000:00:0000:00:00
ARGUS22026-09-05 13:36:5027.73912-82.8814524°22km/h11978m-5.5m/s-46.9°C0%0hPa0V00:00:0000:00:0000:00:00
ARGUS22026-09-05 13:36:3027.73806-82.8817722km/h12098m-5.9m/s-48.0°C0%0hPa0V00:00:0000:00:0000:00:00
ARGUS22026-09-05 13:36:0927.73705-82.8819016km/h12221m-6.0m/s-49.1°C0%0hPa0V00:00:0000:00:0000:00:00
ARGUS22026-09-05 13:35:4927.73607-82.8820616°22km/h12340m-5.9m/s-49.6°C0%0hPa0V00:00:0000:00:0000:00:00
ARGUS22026-09-05 13:35:2827.73502-82.8826336°22km/h12464m-6.0m/s-50.6°C0%0hPa0V00:00:0000:00:0000:00:00
ARGUS22026-09-05 13:35:0827.73418-82.8834543°22km/h12579m-5.5m/s-51.6°C0%0hPa0V00:00:0000:00:0000:00:00
ARGUS22026-09-05 13:34:4827.73331-82.8844350°22km/h12704m-6.2m/s-52.7°C0%0hPa0V00:00:0000:00:0000:00:00
ARGUS22026-09-05 13:34:2727.73262-82.8853542°20km/h12822m-5.9m/s-53.5°C0%0hPa0V00:00:0000:00:0000:00:00
ARGUS22026-09-05 13:34:0727.73189-82.8861751°20km/h12944m-5.5m/s-54.5°C0%0hPa0V00:00:0000:00:0000:00:00
ARGUS22026-09-05 13:33:4627.73134-82.8871868°22km/h13059m-5.8m/s-55.3°C0%0hPa0V00:00:0000:00:0000:00:00
ARGUS22026-09-05 13:33:2627.73092-82.8882863°16km/h13183m-5.9m/s-56.1°C0%0hPa0V00:00:0000:00:0000:00:00
ARGUS22026-09-05 13:33:0527.73060-82.8889757°11km/h13301m-6.1m/s-56.6°C0%0hPa0V00:00:0000:00:0000:00:00
ARGUS22026-09-05 13:32:4527.73016-82.8894032°11km/h13424m-5.9m/s-57.7°C0%0hPa0V00:00:0000:00:0000:00:00
ARGUS22026-09-05 13:32:2427.72979-82.88950354°9km/h13578m-8.4m/s-58.7°C0%0hPa0V00:00:0000:00:0000:00:00
ARGUS22026-09-05 13:32:0427.72921-82.88903323°13km/h13750m-7.6m/s-59.4°C0%0hPa0V00:00:0000:00:0000:00:00
ARGUS22026-09-05 13:31:2327.72783-82.88714308°22km/h13997m-5.6m/s-61.3°C0%0hPa0V00:00:0000:00:0000:00:00
ARGUS22026-09-05 13:31:0127.72701-82.88597313°27km/h14126m-6.1m/s-62.4°C0%0hPa0V00:00:0000:00:0000:00:00
ARGUS22026-09-05 13:30:4027.72594-82.88495328°29km/h14255m-5.6m/s-63.0°C0%0hPa0V00:00:0000:00:0000:00:00
ARGUS22026-09-05 13:30:1927.72463-82.88403327°27km/h14386m-6.0m/s-63.4°C0%0hPa0V00:00:0000:00:0000:00:00
ARGUS22026-09-05 13:29:5927.72339-82.88309329°26km/h14515m-5.7m/s-64.1°C0%0hPa0V00:00:0000:00:0000:00:00
ARGUS22026-09-05 13:29:3727.72223-82.88244335°26km/h14640m-6.0m/s-64.9°C0%0hPa0V00:00:0000:00:0000:00:00
ARGUS22026-09-05 13:27:2727.71628-82.87575306°33km/h15381m-5.3m/s-67.0°C0%0hPa0V00:00:0000:00:0000:00:00
ARGUS22026-09-05 13:27:0627.71547-82.87453308°20km/h15497m-5.4m/s-67.4°C0%0hPa0V00:00:0000:00:0000:00:00
ARGUS22026-09-05 13:26:4627.71514-82.87375278°15km/h15612m-5.9m/s-68.0°C0%0hPa0V00:00:0000:00:0000:00:00
ARGUS22026-09-05 13:26:2527.71522-82.87305255°11km/h15735m-5.4m/s-68.9°C0%0hPa0V00:00:0000:00:0000:00:00
ARGUS22026-09-05 13:26:0527.71563-82.87228233°22km/h15856m-5.8m/s-69.5°C0%0hPa0V00:00:0000:00:0000:00:00
ARGUS22026-09-05 13:25:4527.71645-82.87113232°27km/h15976m-5.8m/s-70.0°C0%0hPa0V00:00:0000:00:0000:00:00
ARGUS22026-09-05 13:25:2427.71712-82.87018241°16km/h16090m-5.5m/s-69.9°C0%0hPa0V00:00:0000:00:0000:00:00
ARGUS22026-09-05 13:25:0427.71744-82.86945230°15km/h16208m-5.4m/s-69.4°C0%0hPa0V00:00:0000:00:0000:00:00
ARGUS22026-09-05 13:24:4327.71814-82.86884217°22km/h16321m-5.4m/s-69.7°C0%0hPa0V00:00:0000:00:0000:00:00
ARGUS22026-09-05 13:24:2327.71914-82.86792218°27km/h16439m-5.1m/s-70.5°C0%0hPa0V00:00:0000:00:0000:00:00
ARGUS22026-09-05 13:24:0227.72031-82.86685224°31km/h16559m-5.4m/s-71.1°C0%0hPa0V00:00:0000:00:0000:00:00
ARGUS22026-09-05 13:23:4127.72155-82.86559220°37km/h16671m-5.8m/s-71.7°C0%0hPa0V00:00:0000:00:0000:00:00
ARGUS22026-09-05 13:23:2027.72303-82.86415227°35km/h16790m-5.6m/s-72.4°C0%0hPa0V00:00:0000:00:0000:00:00
ARGUS22026-09-05 13:23:0027.72394-82.86255246°35km/h16907m-5.9m/s-72.8°C0%0hPa0V00:00:0000:00:0000:00:00
ARGUS22026-09-05 13:22:4027.72446-82.86066261°29km/h17034m-6.4m/s-72.2°C0%0hPa0V00:00:0000:00:0000:00:00
ARGUS22026-09-05 13:22:1927.72473-82.85912262°20km/h17166m-6.3m/s-70.8°C0%0hPa0V00:00:0000:00:0000:00:00
ARGUS22026-09-05 13:21:5827.72495-82.85842241°11km/h17306m-6.3m/s-69.9°C0%0hPa0V00:00:0000:00:0000:00:00
ARGUS22026-09-05 13:21:3727.72552-82.85764230°27km/h17449m-6.8m/s-69.5°C0%0hPa0V00:00:0000:00:0000:00:00
ARGUS22026-09-05 13:21:1627.72642-82.85605247°38km/h17592m-7.4m/s-69.5°C0%0hPa0V00:00:0000:00:0000:00:00
ARGUS22026-09-05 13:19:4327.72664-82.84723224°13km/h18283m-6.8m/s-67.7°C0%0hPa0V00:00:0000:00:0000:00:00
ARGUS22026-09-05 13:19:0727.72719-82.84418282°26km/h18529m-6.7m/s-63.5°C0%0hPa0V00:00:0000:00:0000:00:00
ARGUS22026-09-05 13:18:4727.72669-82.84286303°26km/h18661m-6.3m/s-63.1°C0%0hPa0V00:00:0000:00:0000:00:00
ARGUS22026-09-05 13:18:2527.72602-82.84206333°11km/h18801m-6.7m/s-63.3°C0%0hPa0V00:00:0000:00:0000:00:00
ARGUS22026-09-05 13:18:0527.72583-82.84178262°7km/h18939m-7.0m/s-62.6°C0%0hPa0V00:00:0000:00:0000:00:00
ARGUS22026-09-05 13:17:4427.72602-82.84091265°16km/h19087m-7.4m/s-60.4°C0%0hPa0V00:00:0000:00:0000:00:00
ARGUS22026-09-05 13:17:2427.72610-82.84019254°7km/h19238m-7.6m/s-61.5°C0%0hPa0V00:00:0000:00:0000:00:00
ARGUS22026-09-05 13:17:0327.72632-82.84012151°7km/h19402m-7.8m/s-61.7°C0%0hPa0V00:00:0000:00:0000:00:00
ARGUS22026-09-05 13:16:4327.72693-82.83992214°16km/h19565m-8.1m/s-61.3°C0%0hPa0V00:00:0000:00:0000:00:00
ARGUS22026-09-05 13:16:2227.72750-82.83875257°27km/h19737m-8.1m/s-60.2°C0%0hPa0V00:00:0000:00:0000:00:00
ARGUS22026-09-05 13:16:0227.72760-82.83781243°7km/h19903m-7.9m/s-59.9°C0%0hPa0V00:00:0000:00:0000:00:00
ARGUS22026-09-05 13:15:4227.72773-82.83773195°9km/h20076m-8.2m/s-60.0°C0%0hPa0V00:00:0000:00:0000:00:00
ARGUS22026-09-05 13:15:2127.72799-82.83702272°24km/h20241m-7.6m/s-59.7°C0%0hPa0V00:00:0000:00:0000:00:00
ARGUS22026-09-05 13:15:0127.72781-82.83523281°24km/h20402m-7.6m/s-59.0°C0%0hPa0V00:00:0000:00:0000:00:00
ARGUS22026-09-05 13:13:4827.72885-82.83249212°11km/h21007m-8.6m/s-58.8°C0%0hPa0V00:00:0000:00:0000:00:00
ARGUS22026-09-05 13:13:2727.72932-82.83173243°22km/h21184m-9.1m/s-58.8°C0%0hPa0V00:00:0000:00:0000:00:00
ARGUS22026-09-05 13:13:0627.72955-82.83015285°27km/h21377m-9.2m/s0°C0%0hPa0V00:00:0000:00:0000:00:00
ARGUS22026-09-05 13:12:4427.72944-82.82800276°40km/h21587m-9.8m/s-58.0°C0%0hPa0V00:00:0000:00:0000:00:00
ARGUS22026-09-05 13:12:2327.72920-82.82598274°27km/h21795m-9.8m/s-58.4°C0%0hPa0V00:00:0000:00:0000:00:00
ARGUS22026-09-05 13:12:0327.72961-82.82412254°38km/h21997m-10.3m/s-56.7°C0%0hPa0V00:00:0000:00:0000:00:00
ARGUS22026-09-05 13:11:4327.73030-82.82174250°46km/h22214m-10.3m/s-56.7°C0%0hPa0V00:00:0000:00:0000:00:00
ARGUS22026-09-05 13:11:2227.73125-82.81875255°57km/h22423m-10.3m/s-56.6°C0%0hPa0V00:00:0000:00:0000:00:00
ARGUS22026-09-05 13:11:0127.73191-82.81580260°47km/h22646m-10.8m/s-56.7°C0%0hPa0V00:00:0000:00:0000:00:00
ARGUS22026-09-05 13:10:4127.73156-82.81259288°60km/h22865m-10.8m/s-56.0°C0%0hPa0V00:00:0000:00:0000:00:00
ARGUS22026-09-05 13:10:2127.73080-82.80942281°46km/h23100m-10.8m/s-57.1°C0%0hPa0V00:00:0000:00:0000:00:00
ARGUS22026-09-05 13:10:0027.73037-82.80672287°51km/h23331m-11.3m/s-57.1°C0%0hPa0V00:00:0000:00:0000:00:00
ARGUS22026-09-05 13:09:4027.72948-82.80386289°46km/h23582m-12.1m/s-56.4°C0%0hPa0V00:00:0000:00:0000:00:00
ARGUS22026-09-05 13:09:1927.72899-82.80143283°51km/h23830m-12.6m/s-55.6°C0%0hPa0V00:00:0000:00:0000:00:00
ARGUS22026-09-05 13:08:5927.72816-82.79831291°42km/h24096m-12.6m/s-53.8°C0%0hPa0V00:00:0000:00:0000:00:00
ARGUS22026-09-05 13:08:3727.72760-82.79596285°42km/h24371m-13.1m/s-52.6°C0%0hPa0V00:00:0000:00:0000:00:00
ARGUS22026-09-05 13:08:1727.72730-82.79381269°40km/h24651m-13.5m/s-51.4°C0%0hPa0V00:00:0000:00:0000:00:00
ARGUS22026-09-05 13:07:5527.72744-82.79114272°42km/h24937m-14.1m/s-51.8°C0%0hPa0V00:00:0000:00:0000:00:00
ARGUS22026-09-05 13:07:3527.72742-82.78946249°26km/h25228m-13.9m/s-51.7°C0%0hPa0V00:00:0000:00:0000:00:00
ARGUS22026-09-05 13:07:1427.72839-82.78706246°64km/h25509m-14.2m/s-51.7°C0%0hPa0V00:00:0000:00:0000:00:00
ARGUS22026-09-05 13:06:5427.72943-82.78325261°71km/h25813m-14.8m/s-50.6°C0%0hPa0V00:00:0000:00:0000:00:00
ARGUS22026-09-05 13:06:3227.72941-82.77922282°60km/h26130m-14.9m/s-50.7°C0%0hPa0V00:00:0000:00:0000:00:00
ARGUS22026-09-05 13:06:1227.72898-82.77672272°37km/h26433m-15.1m/s-50.1°C0%0hPa0V00:00:0000:00:0000:00:00
ARGUS22026-09-05 13:05:5127.72972-82.77458241°49km/h26767m-16.2m/s-50.2°C0%0hPa0V00:00:0000:00:0000:00:00
ARGUS22026-09-05 13:05:3127.73099-82.77152253°62km/h27093m-16.7m/s-50.2°C0%0hPa0V00:00:0000:00:0000:00:00
ARGUS22026-09-05 13:05:1027.73192-82.76771257°69km/h27443m-17.1m/s-48.4°C0%0hPa0V00:00:0000:00:0000:00:00
ARGUS22026-09-05 13:04:5027.73298-82.76403251°69km/h27786m-17.3m/s-47.1°C0%0hPa0V00:00:0000:00:0000:00:00
ARGUS22026-09-05 13:04:2927.73357-82.75946278°80km/h28151m-17.5m/s-46.8°C0%0hPa0V00:00:0000:00:0000:00:00
ARGUS22026-09-05 13:04:0927.73293-82.75563274°46km/h28508m-18.2m/s-46.4°C0%0hPa0V00:00:0000:00:0000:00:00
ARGUS22026-09-05 13:03:4827.73295-82.75310243°42km/h28893m-18.7m/s-45.3°C0%0hPa0V00:00:0000:00:0000:00:00
ARGUS22026-09-05 13:03:2827.73468-82.75075241°62km/h29258m-15.5m/s-46.6°C0%0hPa0V00:00:0000:00:0000:00:00
ARGUS22026-09-05 13:03:0827.73728-82.74740232°73km/h29576m-15.2m/s-47.4°C0%0hPa0V00:00:0000:00:0000:00:00
ARGUS22026-09-05 13:02:4627.73906-82.74348265°58km/h30036m-26.8m/s-45.8°C0%0hPa0V00:00:0000:00:0000:00:00
ARGUS22026-09-05 13:02:2527.73947-82.74013255°68km/h30670m-31.0m/s-43.8°C0%0hPa0V00:00:0000:00:0000:00:00
ARGUS22026-09-05 13:02:0427.73890-82.73614279°95km/h31385m-34.7m/s-39.5°C0%0hPa0V00:00:0000:00:0000:00:00
ARGUS22026-09-05 13:01:4327.73732-82.73259310°66km/h32110m-33.5m/s-36.2°C0%0hPa0V00:00:0000:00:0000:00:00
ARGUS22026-09-05 13:01:1827.73599-82.72998254°37km/h32895m-24.2m/s-36.4°C0%0hPa0V00:00:0000:00:0000:00:00
ARGUS22026-09-05 13:00:5527.73682-82.72836249°91km/h33337m9.6m/s-37.6°C0%0hPa0V00:00:0000:00:0000:00:00
ARGUS22026-09-05 13:00:3027.73800-82.72557243°78km/h33185m4.1m/s-37.3°C0%0hPa0V00:00:0000:00:0000:00:00
ARGUS22026-09-05 13:00:0527.73844-82.72288259°84km/h33017m2.1m/s-36.7°C0%0hPa0V00:00:0000:00:0000:00:00
ARGUS22026-09-05 12:59:4427.73815-82.72074349°42km/h32885m9.1m/s-36.1°C0%0hPa0V00:00:0000:00:0000:00:00
ARGUS22026-09-05 12:59:2427.73777-82.71870222°53km/h32749m7.6m/s-35.8°C0%0hPa0V00:00:0000:00:0000:00:00
ARGUS22026-09-05 12:59:0327.73679-82.71652309°82km/h32622m4.2m/s-34.8°C0%0hPa0V00:00:0000:00:0000:00:00
ARGUS22026-09-05 12:58:4227.73504-82.71516258°24km/h32480m4.6m/s-34.8°C0%0hPa0V00:00:0000:00:0000:00:00
ARGUS22026-09-05 12:58:2127.73278-82.71348243°42km/h32356m6.9m/s-35.2°C0%0hPa0V00:00:0000:00:0000:00:00
ARGUS22026-09-05 12:57:4927.73049-82.71023281°99km/h32166m3.1m/s-36.1°C0%0hPa0V00:00:0000:00:0000:00:00
ARGUS22026-09-05 12:57:2927.72828-82.70682340°80km/h32037m2.4m/s-37.1°C0%0hPa0V00:00:0000:00:0000:00:00
ARGUS22026-09-05 12:57:0827.72652-82.70353275°89km/h31922m8.9m/s-37.2°C0%0hPa0V00:00:0000:00:0000:00:00
ARGUS22026-09-05 12:56:4727.72500-82.69985320°57km/h31789m8.6m/s-38.4°C0%0hPa0V00:00:0000:00:0000:00:00
ARGUS22026-09-05 12:56:2627.72400-82.69675261°64km/h31673m1.1m/s-39.3°C0%0hPa0V00:00:0000:00:0000:00:00
ARGUS22026-09-05 12:56:0627.72259-82.69266308°102km/h31543m2.5m/s-40.3°C0%0hPa0V00:00:0000:00:0000:00:00
ARGUS22026-09-05 12:55:4527.72141-82.68827280°66km/h31428m9.6m/s-40.4°C0%0hPa0V00:00:0000:00:0000:00:00
ARGUS22026-09-05 12:55:2527.72038-82.68457303°57km/h31309m7.1m/s-41.5°C0%0hPa0V00:00:0000:00:0000:00:00
ARGUS22026-09-05 12:54:4427.71942-82.67795241°29km/h31072m3.0m/s-42.5°C0%0hPa0V00:00:0000:00:0000:00:00
ARGUS22026-09-05 12:54:0227.71900-82.67109260°47km/h30842m7.2m/s-45.0°C0%0hPa0V00:00:0000:00:0000:00:00
ARGUS22026-09-05 12:53:4227.71961-82.66747257°55km/h30732m4.0m/s-45.5°C0%0hPa0V00:00:0000:00:0000:00:00
ARGUS22026-09-05 12:53:2227.71988-82.66362287°69km/h30610m3.2m/s-45.5°C0%0hPa0V00:00:0000:00:0000:00:00
ARGUS22026-09-05 12:53:0127.72005-82.66048242°27km/h30488m4.7m/s-45.4°C0%0hPa0V00:00:0000:00:0000:00:00
ARGUS22026-09-05 12:52:4127.72013-82.65759272°80km/h30363m4.5m/s-45.3°C0%0hPa0V00:00:0000:00:0000:00:00
ARGUS22026-09-05 12:52:1927.72065-82.65456237°42km/h30235m4.6m/s-45.5°C0%0hPa0V00:00:0000:00:0000:00:00
ARGUS22026-09-05 12:51:5627.72130-82.65100233°60km/h30087m6.7m/s-45.7°C0%0hPa0V00:00:0000:00:0000:00:00
ARGUS22026-09-05 12:51:3627.72219-82.64765275°66km/h29943m5.1m/s-46.3°C0%0hPa0V00:00:0000:00:0000:00:00
ARGUS22026-09-05 12:51:1327.72345-82.64382248°68km/h29798m8.5m/s-46.3°C0%0hPa0V00:00:0000:00:0000:00:00
ARGUS22026-09-05 12:50:5227.72482-82.64008236°62km/h29654m9.8m/s-46.2°C0%0hPa0V00:00:0000:00:0000:00:00
ARGUS22026-09-05 12:50:3227.72685-82.63646250°69km/h29508m9.3m/s-45.9°C0%0hPa0V00:00:0000:00:0000:00:00
ARGUS22026-09-05 12:50:1127.72861-82.63321236°77km/h29376m8.5m/s-45.8°C0%0hPa0V00:00:0000:00:0000:00:00
ARGUS22026-09-05 12:49:5127.73095-82.63044220°73km/h29236m6.3m/s-45.2°C0%0hPa0V00:00:0000:00:0000:00:00
ARGUS22026-09-05 12:49:3127.73290-82.62788232°58km/h29107m6.7m/s-44.6°C0%0hPa0V00:00:0000:00:0000:00:00
ARGUS22026-09-05 12:49:1027.73484-82.62572243°42km/h28975m7.9m/s-44.4°C0%0hPa0V00:00:0000:00:0000:00:00
ARGUS22026-09-05 12:48:4927.73610-82.62359272°37km/h28854m4.4m/s-43.8°C0%0hPa0V00:00:0000:00:0000:00:00
ARGUS22026-09-05 12:48:2927.73691-82.62166216°55km/h28724m-0.1m/s-43.3°C0%0hPa0V00:00:0000:00:0000:00:00
ARGUS22026-09-05 12:48:0727.73668-82.61933302°47km/h28603m5.0m/s-43.6°C0%0hPa0V00:00:0000:00:0000:00:00
ARGUS22026-09-05 12:47:4727.73594-82.61721246°31km/h28491m4.2m/s-44.3°C0%0hPa0V00:00:0000:00:0000:00:00
ARGUS22026-09-05 12:47:2627.73550-82.61460253°42km/h28369m7.0m/s-44.6°C0%0hPa0V00:00:0000:00:0000:00:00
ARGUS22026-09-05 12:47:0727.73506-82.61171290°86km/h28258m6.9m/s-44.8°C0%0hPa0V00:00:0000:00:0000:00:00
ARGUS22026-09-05 12:46:4527.73416-82.60768271°51km/h28142m4.7m/s-45.0°C0%0hPa0V00:00:0000:00:0000:00:00
ARGUS22026-09-05 12:46:2227.73356-82.60266259°75km/h28014m3.9m/s-45.8°C0%0hPa0V00:00:0000:00:0000:00:00
ARGUS22026-09-05 12:46:0127.73399-82.59800242°82km/h27895m4.5m/s-46.0°C0%0hPa0V00:00:0000:00:0000:00:00
ARGUS22026-09-05 12:45:4127.73488-82.59360264°69km/h27772m5.7m/s-46.2°C0%0hPa0V00:00:0000:00:0000:00:00
ARGUS22026-09-05 12:45:2027.73623-82.59007255°66km/h27649m9.1m/s-46.2°C0%0hPa0V00:00:0000:00:0000:00:00
ARGUS22026-09-05 12:44:5927.73738-82.58660237°84km/h27523m6.4m/s-47.3°C0%0hPa0V00:00:0000:00:0000:00:00
ARGUS22026-09-05 12:44:3927.73856-82.58239273°68km/h27401m3.6m/s-47.8°C0%0hPa0V00:00:0000:00:0000:00:00
ARGUS22026-09-05 12:44:1827.73987-82.57846236°68km/h27275m5.3m/s-48.4°C0%0hPa0V00:00:0000:00:0000:00:00
ARGUS22026-09-05 12:43:5627.74093-82.57420252°69km/h27139m7.5m/s-48.9°C0%0hPa0V00:00:0000:00:0000:00:00
ARGUS22026-09-05 12:43:3527.74207-82.57072234°77km/h27015m3.2m/s-49.4°C0%0hPa0V00:00:0000:00:0000:00:00
ARGUS22026-09-05 12:43:1527.74324-82.56718247°68km/h26885m6.4m/s-50.0°C0%0hPa0V00:00:0000:00:0000:00:00
ARGUS22026-09-05 12:42:5427.74442-82.56436227°49km/h26759m8.3m/s-49.9°C0%0hPa0V00:00:0000:00:0000:00:00
ARGUS22026-09-05 12:42:3427.74560-82.56187264°47km/h26630m5.4m/s-49.4°C0%0hPa0V00:00:0000:00:0000:00:00
ARGUS22026-09-05 12:42:1327.74649-82.55963244°33km/h26501m6.0m/s-49.5°C0%0hPa0V00:00:0000:00:0000:00:00
ARGUS22026-09-05 12:41:5027.74664-82.55714271°47km/h26362m7.1m/s-49.7°C0%0hPa0V00:00:0000:00:0000:00:00
ARGUS22026-09-05 12:41:3027.74630-82.55460275°31km/h26235m5.6m/s-49.9°C0%0hPa0V00:00:0000:00:0000:00:00
ARGUS22026-09-05 12:41:1027.74578-82.55147276°49km/h26107m5.3m/s-50.0°C0%0hPa0V00:00:0000:00:0000:00:00
ARGUS22026-09-05 12:40:5027.74555-82.54776259°73km/h25978m9.5m/s-49.9°C0%0hPa0V00:00:0000:00:0000:00:00
ARGUS22026-09-05 12:40:2927.74610-82.54343256°78km/h25840m6.1m/s-49.9°C0%0hPa0V00:00:0000:00:0000:00:00
ARGUS22026-09-05 12:40:0927.74683-82.53939271°58km/h25716m6.6m/s-50.7°C0%0hPa0V00:00:0000:00:0000:00:00
ARGUS22026-09-05 12:39:4727.74773-82.53580249°62km/h25584m7.4m/s-51.9°C0%0hPa0V00:00:0000:00:0000:00:00
ARGUS22026-09-05 12:39:2727.74884-82.53285227°44km/h25458m8.3m/s-52.2°C0%0hPa0V00:00:0000:00:0000:00:00
ARGUS22026-09-05 12:39:0727.74949-82.53080280°22km/h25328m7.9m/s-52.6°C0%0hPa0V00:00:0000:00:0000:00:00
ARGUS22026-09-05 12:38:4627.74940-82.52927283°27km/h25204m7.8m/s-53.2°C0%0hPa0V00:00:0000:00:0000:00:00
ARGUS22026-09-05 12:38:2627.74921-82.52719264°26km/h25073m8.2m/s-53.0°C0%0hPa0V00:00:0000:00:0000:00:00
ARGUS22026-09-05 12:38:0527.74949-82.52457264°53km/h24952m5.4m/s-52.8°C0%0hPa0V00:00:0000:00:0000:00:00
ARGUS22026-09-05 12:37:4527.74979-82.52178282°60km/h24831m4.6m/s-52.8°C0%0hPa0V00:00:0000:00:0000:00:00
ARGUS22026-09-05 12:37:2427.74963-82.51962287°35km/h24717m7.1m/s-53.1°C0%0hPa0V00:00:0000:00:0000:00:00
ARGUS22026-09-05 12:37:0427.74941-82.51744288°42km/h24602m6.3m/s-54.0°C0%0hPa0V00:00:0000:00:0000:00:00
ARGUS22026-09-05 12:36:4327.74876-82.51508268°40km/h24494m5.3m/s-54.4°C0%0hPa0V00:00:0000:00:0000:00:00
ARGUS22026-09-05 12:36:2227.74829-82.51263279°33km/h24393m4.8m/s-54.8°C0%0hPa0V00:00:0000:00:0000:00:00
ARGUS22026-09-05 12:36:0127.74732-82.51043310°47km/h24284m5.8m/s-55.3°C0%0hPa0V00:00:0000:00:0000:00:00
ARGUS22026-09-05 12:35:4127.74598-82.50808307°66km/h24179m4.8m/s-55.8°C0%0hPa0V00:00:0000:00:0000:00:00
ARGUS22026-09-05 12:35:2127.74501-82.50513289°60km/h24069m5.6m/s-56.4°C0%0hPa0V00:00:0000:00:0000:00:00
ARGUS22026-09-05 12:35:0027.74444-82.50210296°60km/h23963m6.1m/s-57.1°C0%0hPa0V00:00:0000:00:0000:00:00
ARGUS22026-09-05 12:34:3927.74390-82.49973294°33km/h23847m6.5m/s-57.4°C0%0hPa0V00:00:0000:00:0000:00:00
ARGUS22026-09-05 12:34:1927.74344-82.49802290°37km/h23734m6.6m/s-57.3°C0%0hPa0V00:00:0000:00:0000:00:00
ARGUS22026-09-05 12:33:5827.74286-82.49583251°38km/h23611m5.8m/s-57.3°C0%0hPa0V00:00:0000:00:0000:00:00
ARGUS22026-09-05 12:33:3827.74217-82.49364288°47km/h23493m7.0m/s-57.5°C0%0hPa0V00:00:0000:00:0000:00:00
ARGUS22026-09-05 12:33:1827.74151-82.49140286°44km/h23369m5.4m/s-57.2°C0%0hPa0V00:00:0000:00:0000:00:00
ARGUS22026-09-05 12:32:5827.74138-82.48914233°37km/h23255m5.7m/s-57.2°C0%0hPa0V00:00:0000:00:0000:00:00
ARGUS22026-09-05 12:32:3727.74139-82.48707268°35km/h23139m5.2m/s-57.0°C0%0hPa0V00:00:0000:00:0000:00:00
ARGUS22026-09-05 12:32:1627.74123-82.48507250°46km/h23030m6.0m/s-56.2°C0%0hPa0V00:00:0000:00:0000:00:00
ARGUS22026-09-05 12:31:5627.74104-82.48262273°57km/h22920m5.3m/s-55.8°C0%0hPa0V00:00:0000:00:0000:00:00
ARGUS22026-09-05 12:31:3427.74076-82.47960266°51km/h22808m6.0m/s-56.3°C0%0hPa0V00:00:0000:00:0000:00:00
ARGUS22026-09-05 12:31:1427.74080-82.47664261°58km/h22708m5.6m/s-56.5°C0%0hPa0V00:00:0000:00:0000:00:00
ARGUS22026-09-05 12:30:5427.74142-82.47398241°38km/h22598m5.2m/s-56.4°C0%0hPa0V00:00:0000:00:0000:00:00
ARGUS22026-09-05 12:30:3327.74222-82.47172250°38km/h22495m5.8m/s-56.0°C0%0hPa0V00:00:0000:00:0000:00:00
ARGUS22026-09-05 12:30:1327.74323-82.46915248°60km/h22386m4.2m/s-55.9°C0%0hPa0V00:00:0000:00:0000:00:00
ARGUS22026-09-05 12:29:5227.74435-82.46645256°71km/h22277m5.4m/s-55.9°C0%0hPa0V00:00:0000:00:0000:00:00
ARGUS22026-09-05 12:29:3227.74574-82.46390247°55km/h22166m4.7m/s-55.9°C0%0hPa0V00:00:0000:00:0000:00:00
ARGUS22026-09-05 12:29:1127.74685-82.46190238°37km/h22052m6.6m/s-55.7°C0%0hPa0V00:00:0000:00:0000:00:00
ARGUS22026-09-05 12:28:5127.74755-82.46006257°31km/h21937m5.3m/s-55.4°C0%0hPa0V00:00:0000:00:0000:00:00
ARGUS22026-09-05 12:28:3027.74817-82.45817247°38km/h21825m5.9m/s-55.5°C0%0hPa0V00:00:0000:00:0000:00:00
ARGUS22026-09-05 12:28:1027.74908-82.45656211°22km/h21708m5.2m/s-55.5°C0%0hPa0V00:00:0000:00:0000:00:00
ARGUS22026-09-05 12:27:4927.74969-82.45514295°15km/h21600m4.4m/s-56.2°C0%0hPa0V00:00:0000:00:0000:00:00
ARGUS22026-09-05 12:27:2927.74955-82.45347288°42km/h21490m4.7m/s-55.9°C0%0hPa0V00:00:0000:00:0000:00:00
ARGUS22026-09-05 12:27:0927.74935-82.45149270°38km/h21388m6.0m/s-55.5°C0%0hPa0V00:00:0000:00:0000:00:00
ARGUS22026-09-05 12:26:4827.74920-82.44921273°31km/h21281m4.8m/s-55.4°C0%0hPa0V00:00:0000:00:0000:00:00
ARGUS22026-09-05 12:26:2727.74910-82.44708285°47km/h21181m5.2m/s-55.8°C0%0hPa0V00:00:0000:00:0000:00:00
ARGUS22026-09-05 12:26:0727.74862-82.44512285°37km/h21074m5.6m/s-56.1°C0%0hPa0V00:00:0000:00:0000:00:00
ARGUS22026-09-05 12:25:4627.74849-82.44325276°29km/h20970m6.2m/s-56.2°C0%0hPa0V00:00:0000:00:0000:00:00
ARGUS22026-09-05 12:25:2527.74846-82.44177277°24km/h20868m5.8m/s-56.6°C0%0hPa0V00:00:0000:00:0000:00:00
ARGUS22026-09-05 12:25:0527.74825-82.44052302°31km/h20754m5.6m/s-56.7°C0%0hPa0V00:00:0000:00:0000:00:00
ARGUS22026-09-05 12:24:4427.74791-82.43906269°22km/h20641m5.8m/s-57.5°C0%0hPa0V00:00:0000:00:0000:00:00
ARGUS22026-09-05 12:24:2327.74772-82.43747310°29km/h20526m5.4m/s-58.1°C0%0hPa0V00:00:0000:00:0000:00:00
ARGUS22026-09-05 12:24:0327.74726-82.43600301°37km/h20416m6.4m/s-58.3°C0%0hPa0V00:00:0000:00:0000:00:00
ARGUS22026-09-05 12:23:4327.74627-82.43405298°33km/h20301m4.5m/s-58.1°C0%0hPa0V00:00:0000:00:0000:00:00
ARGUS22026-09-05 12:23:2227.74570-82.43169279°55km/h20194m6.6m/s-58.8°C0%0hPa0V00:00:0000:00:0000:00:00
ARGUS22026-09-05 12:22:4127.74517-82.42845291°18km/h19987m4.0m/s-60.2°C0%0hPa0V00:00:0000:00:0000:00:00
ARGUS22026-09-05 12:22:2127.74494-82.42718259°27km/h19890m5.2m/s-60.4°C0%0hPa0V00:00:0000:00:0000:00:00
ARGUS22026-09-05 12:22:0127.74503-82.42545256°38km/h19800m4.3m/s-61.3°C0%0hPa0V00:00:0000:00:0000:00:00
ARGUS22026-09-05 12:21:4027.74569-82.42347231°35km/h19700m4.8m/s-62.3°C0%0hPa0V00:00:0000:00:0000:00:00
ARGUS22026-09-05 12:21:1927.74646-82.42227270°20km/h19602m3.5m/s-62.9°C0%0hPa0V00:00:0000:00:0000:00:00
ARGUS22026-09-05 12:20:5827.74688-82.42168192°9km/h19504m5.4m/s-63.6°C0%0hPa0V00:00:0000:00:0000:00:00
ARGUS22026-09-05 12:20:3727.74694-82.42114276°29km/h19401m4.7m/s-63.1°C0%0hPa0V00:00:0000:00:0000:00:00
ARGUS22026-09-05 12:20:1727.74708-82.42017236°26km/h19299m5.3m/s-62.3°C0%0hPa0V00:00:0000:00:0000:00:00
ARGUS22026-09-05 12:19:5727.74754-82.41904236°37km/h19191m6.2m/s-62.8°C0%0hPa0V00:00:0000:00:0000:00:00
ARGUS22026-09-05 12:19:3627.74804-82.41810275°20km/h19091m4.5m/s-64.5°C0%0hPa0V00:00:0000:00:0000:00:00
ARGUS22026-09-05 12:19:1527.74796-82.41749319°7km/h18990m4.1m/s-64.6°C0%0hPa0V00:00:0000:00:0000:00:00
ARGUS22026-09-05 12:18:3527.74686-82.41586271°29km/h18803m4.9m/s-64.1°C0%0hPa0V00:00:0000:00:0000:00:00
ARGUS22026-09-05 12:18:1427.74658-82.41430267°33km/h18720m4.8m/s-64.4°C0%0hPa0V00:00:0000:00:0000:00:00
ARGUS22026-09-05 12:17:5427.74666-82.41273281°24km/h18629m3.0m/s-65.0°C0%0hPa0V00:00:0000:00:0000:00:00
ARGUS22026-09-05 12:17:3327.74725-82.41084245°44km/h18543m3.9m/s-66.3°C0%0hPa0V00:00:0000:00:0000:00:00
ARGUS22026-09-05 12:17:1327.74851-82.40905218°27km/h18450m4.0m/s-67.7°C0%0hPa0V00:00:0000:00:0000:00:00
ARGUS22026-09-05 12:16:5327.74966-82.40819191°26km/h18356m4.2m/s-68.1°C0%0hPa0V00:00:0000:00:0000:00:00
ARGUS22026-09-05 12:16:3227.75042-82.40791280°4km/h18256m6.1m/s-69.4°C0%0hPa0V00:00:0000:00:0000:00:00
ARGUS22026-09-05 12:16:1127.75018-82.40697284°22km/h18157m5.8m/s-69.6°C0%0hPa0V00:00:0000:00:0000:00:00
ARGUS22026-09-05 12:15:5127.74986-82.40532280°22km/h18056m4.6m/s-69.7°C0%0hPa0V00:00:0000:00:0000:00:00
ARGUS22026-09-05 12:15:3027.75004-82.40335263°44km/h17955m3.9m/s-69.3°C0%0hPa0V00:00:0000:00:0000:00:00
ARGUS22026-09-05 12:15:0927.75026-82.40126257°37km/h17862m4.5m/s-68.8°C0%0hPa0V00:00:0000:00:0000:00:00
ARGUS22026-09-05 12:14:4827.75081-82.39890264°47km/h17768m2.9m/s-68.7°C0%0hPa0V00:00:0000:00:0000:00:00
ARGUS22026-09-05 12:14:2827.75215-82.39649232°49km/h17677m3.8m/s-70.4°C0%0hPa0V00:00:0000:00:0000:00:00
ARGUS22026-09-05 12:14:0727.75334-82.39477221°27km/h17583m5.0m/s-70.3°C0%0hPa0V00:00:0000:00:0000:00:00
ARGUS22026-09-05 12:13:4727.75453-82.39376231°29km/h17492m4.1m/s-69.8°C0%0hPa0V00:00:0000:00:0000:00:00
ARGUS22026-09-05 12:13:2627.75566-82.39292207°15km/h17398m6.2m/s-70.2°C0%0hPa0V00:00:0000:00:0000:00:00
ARGUS22026-09-05 12:13:0627.75613-82.39264214°7km/h17307m4.2m/s-70.5°C0%0hPa0V00:00:0000:00:0000:00:00
ARGUS22026-09-05 12:12:2627.75715-82.39100249°29km/h17114m5.6m/s-72.3°C0%0hPa0V00:00:0000:00:0000:00:00
ARGUS22026-09-05 12:12:0527.75774-82.38943252°27km/h17012m3.9m/s-72.4°C0%0hPa0V00:00:0000:00:0000:00:00
ARGUS22026-09-05 12:11:4427.75864-82.38760232°42km/h16913m4.9m/s-72.5°C0%0hPa0V00:00:0000:00:0000:00:00
ARGUS22026-09-05 12:11:0327.76092-82.38403226°49km/h16724m4.0m/s-71.3°C0%0hPa0V00:00:0000:00:0000:00:00
ARGUS22026-09-05 12:10:4327.76236-82.38264214°33km/h16630m4.9m/s-70.9°C0%0hPa0V00:00:0000:00:0000:00:00
ARGUS22026-09-05 12:10:2127.76374-82.38145228°31km/h16538m5.2m/s-70.3°C0%0hPa0V00:00:0000:00:0000:00:00
ARGUS22026-09-05 12:10:0127.76490-82.38025234°26km/h16450m4.7m/s-69.5°C0%0hPa0V00:00:0000:00:0000:00:00
ARGUS22026-09-05 12:09:4127.76602-82.37903230°31km/h16361m4.9m/s-69.2°C0%0hPa0V00:00:0000:00:0000:00:00
ARGUS22026-09-05 12:09:2027.76706-82.37806214°29km/h16274m3.5m/s-68.7°C0%0hPa0V00:00:0000:00:0000:00:00
ARGUS22026-09-05 12:09:0027.76798-82.37739214°26km/h16180m5.0m/s-68.0°C0%0hPa0V00:00:0000:00:0000:00:00
ARGUS22026-09-05 12:08:3927.76864-82.37683184°18km/h16083m5.1m/s-67.7°C0%0hPa0V00:00:0000:00:0000:00:00
ARGUS22026-09-05 12:08:1827.76898-82.37627259°18km/h15991m3.6m/s-68.8°C0%0hPa0V00:00:0000:00:0000:00:00
ARGUS22026-09-05 12:07:5827.76908-82.37593215°11km/h15902m4.2m/s-68.6°C0%0hPa0V00:00:0000:00:0000:00:00
ARGUS22026-09-05 12:07:3727.76972-82.37516240°18km/h15806m5.9m/s-69.0°C0%0hPa0V00:00:0000:00:0000:00:00
ARGUS22026-09-05 12:07:1827.77027-82.37472329°5km/h15713m4.3m/s-68.4°C0%0hPa0V00:00:0000:00:0000:00:00
ARGUS22026-09-05 12:06:5727.77041-82.37435306°9km/h15618m5.3m/s-67.7°C0%0hPa0V00:00:0000:00:0000:00:00
ARGUS22026-09-05 12:06:3627.77022-82.374087km/h15528m3.3m/s-67.2°C0%0hPa0V00:00:0000:00:0000:00:00
ARGUS22026-09-05 12:06:1627.76965-82.37350296°44km/h15432m5.8m/s-66.8°C0%0hPa0V00:00:0000:00:0000:00:00
ARGUS22026-09-05 12:05:5527.76856-82.37221316°33km/h15327m5.1m/s-67.7°C0%0hPa0V00:00:0000:00:0000:00:00
ARGUS22026-09-05 12:05:3527.76740-82.37034315°47km/h15242m4.2m/s-68.1°C0%0hPa0V00:00:0000:00:0000:00:00
ARGUS22026-09-05 12:05:1327.76618-82.36892318°31km/h15147m5.5m/s-67.8°C0%0hPa0V00:00:0000:00:0000:00:00
ARGUS22026-09-05 12:04:5327.76497-82.36784335°37km/h15060m3.8m/s-67.6°C0%0hPa0V00:00:0000:00:0000:00:00
ARGUS22026-09-05 12:04:3227.76347-82.36700339°31km/h14970m4.5m/s-67.4°C0%0hPa0V00:00:0000:00:0000:00:00
ARGUS22026-09-05 12:04:1227.76210-82.36605326°31km/h14882m5.4m/s-67.0°C0%0hPa0V00:00:0000:00:0000:00:00
ARGUS22026-09-05 12:03:5227.76060-82.36490322°33km/h14787m3.9m/s-66.4°C0%0hPa0V00:00:0000:00:0000:00:00
ARGUS22026-09-05 12:03:3127.75938-82.36382313°35km/h14701m3.4m/s-65.8°C0%0hPa0V00:00:0000:00:0000:00:00
ARGUS22026-09-05 12:03:1127.75834-82.36256319°26km/h14608m5.5m/s-65.1°C0%0hPa0V00:00:0000:00:0000:00:00
ARGUS22026-09-05 12:02:5027.75734-82.36136312°33km/h14522m3.9m/s-64.7°C0%0hPa0V00:00:0000:00:0000:00:00
ARGUS22026-09-05 12:02:3027.75637-82.35998313°37km/h14434m3.7m/s-64.5°C0%0hPa0V00:00:0000:00:0000:00:00
ARGUS22026-09-05 12:02:0927.75548-82.35841315°29km/h14353m4.4m/s-64.4°C0%0hPa0V00:00:0000:00:0000:00:00
ARGUS22026-09-05 12:01:4827.75466-82.35674307°35km/h14252m4.7m/s-63.7°C0%0hPa0V00:00:0000:00:0000:00:00
ARGUS22026-09-05 12:01:2827.75414-82.35542294°31km/h14160m4.6m/s-63.1°C0%0hPa0V00:00:0000:00:0000:00:00
ARGUS22026-09-05 12:01:0827.75379-82.35406271°29km/h14074m4.9m/s-62.4°C0%0hPa0V00:00:0000:00:0000:00:00
ARGUS22026-09-05 12:00:4827.75359-82.35277286°22km/h13990m5.2m/s-61.7°C0%0hPa0V00:00:0000:00:0000:00:00
ARGUS22026-09-05 12:00:2727.75333-82.35159295°29km/h13903m3.9m/s-61.2°C0%0hPa0V00:00:0000:00:0000:00:00
ARGUS22026-09-05 12:00:0627.75330-82.35052281°13km/h13822m3.2m/s-60.6°C0%0hPa0V00:00:0000:00:0000:00:00
ARGUS22026-09-05 11:59:4627.75310-82.34941306°29km/h13720m5.4m/s-60.1°C0%0hPa0V00:00:0000:00:0000:00:00
ARGUS22026-09-05 11:59:2427.75270-82.34917349°7km/h13613m5.8m/s-59.5°C0%0hPa0V00:00:0000:00:0000:00:00
ARGUS22026-09-05 11:59:0427.75205-82.3491715°24km/h13520m4.5m/s-59.0°C0%0hPa0V00:00:0000:00:0000:00:00
ARGUS22026-09-05 11:58:4427.75114-82.3495313°31km/h13430m3.2m/s-58.4°C0%0hPa0V00:00:0000:00:0000:00:00
ARGUS22026-09-05 11:58:2327.75013-82.3499724°22km/h13345m4.5m/s-57.6°C0%0hPa0V00:00:0000:00:0000:00:00
ARGUS22026-09-05 11:58:0327.74895-82.3505212°18km/h13255m3.9m/s-56.8°C0%0hPa0V00:00:0000:00:0000:00:00
ARGUS22026-09-05 11:57:4227.74785-82.3510818°20km/h13164m3.5m/s-56.0°C0%0hPa0V00:00:0000:00:0000:00:00
ARGUS22026-09-05 11:57:2227.74668-82.3517730°29km/h13072m5.2m/s-55.2°C0%0hPa0V00:00:0000:00:0000:00:00
ARGUS22026-09-05 11:57:0127.74545-82.3524230°24km/h12983m5.0m/s-54.5°C0%0hPa0V00:00:0000:00:0000:00:00
ARGUS22026-09-05 11:56:4027.74403-82.3531226°35km/h12891m5.5m/s-53.9°C0%0hPa0V00:00:0000:00:0000:00:00
ARGUS22026-09-05 11:56:2027.74262-82.3541237°37km/h12800m5.4m/s-54.0°C0%0hPa0V00:00:0000:00:0000:00:00
ARGUS22026-09-05 11:56:0027.74147-82.3550411°26km/h12710m4.6m/s-53.3°C0%0hPa0V00:00:0000:00:0000:00:00
ARGUS22026-09-05 11:55:3927.74064-82.3556066°24km/h12613m5.3m/s-52.6°C0%0hPa0V00:00:0000:00:0000:00:00
ARGUS22026-09-05 11:55:1927.73980-82.3560029km/h12512m4.8m/s-51.7°C0%0hPa0V00:00:0000:00:0000:00:00
ARGUS22026-09-05 11:54:5827.73880-82.35621357°15km/h12423m3.4m/s-51.1°C0%0hPa0V00:00:0000:00:0000:00:00
ARGUS22026-09-05 11:54:3827.73780-82.35630336°16km/h12324m4.2m/s-50.3°C0%0hPa0V00:00:0000:00:0000:00:00
ARGUS22026-09-05 11:54:1727.73706-82.35610350°20km/h12232m4.4m/s-49.6°C0%0hPa0V00:00:0000:00:0000:00:00
ARGUS22026-09-05 11:53:5627.73636-82.35589327°11km/h12146m4.6m/s-48.8°C0%0hPa0V00:00:0000:00:0000:00:00
ARGUS22026-09-05 11:53:3627.73578-82.35559322°13km/h12062m4.6m/s-48.1°C0%0hPa0V00:00:0000:00:0000:00:00
ARGUS22026-09-05 11:53:1527.73532-82.35511287°16km/h11981m4.5m/s-47.5°C0%0hPa0V00:00:0000:00:0000:00:00
ARGUS22026-09-05 11:52:5527.73485-82.35454309°16km/h11885m6.1m/s-46.9°C0%0hPa0V00:00:0000:00:0000:00:00
ARGUS22026-09-05 11:52:3427.73443-82.35406336°13km/h11788m4.0m/s-46.0°C0%0hPa0V00:00:0000:00:0000:00:00
ARGUS22026-09-05 11:52:1327.73400-82.35382318°15km/h11692m5.5m/s-45.4°C0%0hPa0V00:00:0000:00:0000:00:00
ARGUS22026-09-05 11:51:5327.73353-82.35353358°9km/h11606m4.9m/s-44.8°C0%0hPa0V00:00:0000:00:0000:00:00
ARGUS22026-09-05 11:51:3327.73308-82.35328346°15km/h11516m4.4m/s-44.3°C0%0hPa0V00:00:0000:00:0000:00:00
ARGUS22026-09-05 11:51:1327.73261-82.35305339°9km/h11435m3.7m/s-43.8°C0%0hPa0V00:00:0000:00:0000:00:00
ARGUS22026-09-05 11:50:5227.73199-82.35303345°11km/h11348m4.5m/s-43.2°C0%0hPa0V00:00:0000:00:0000:00:00
ARGUS22026-09-05 11:50:3127.73128-82.3531835°20km/h11258m5.3m/s-42.6°C0%0hPa0V00:00:0000:00:0000:00:00
ARGUS22026-09-05 11:50:1027.73059-82.3536332°15km/h11161m4.7m/s-41.8°C0%0hPa0V00:00:0000:00:0000:00:00
ARGUS22026-09-05 11:49:4827.72980-82.3540643°20km/h11055m3.9m/s-41.2°C0%0hPa0V00:00:0000:00:0000:00:00
ARGUS22026-09-05 11:49:2727.72901-82.3545126°24km/h10964m3.5m/s-40.5°C0%0hPa0V00:00:0000:00:0000:00:00
ARGUS22026-09-05 11:49:0727.72834-82.35475353°11km/h10872m5.3m/s-39.7°C0%0hPa0V00:00:0000:00:0000:00:00
ARGUS22026-09-05 11:48:4727.72773-82.35489325°18km/h10769m4.4m/s-39.0°C0%0hPa0V00:00:0000:00:0000:00:00
ARGUS22026-09-05 11:48:2627.72724-82.3549317°11km/h10673m5.1m/s-38.1°C0%0hPa0V00:00:0000:00:0000:00:00
ARGUS22026-09-05 11:48:0627.72685-82.3550020°16km/h10561m3.7m/s-37.0°C0%0hPa0V00:00:0000:00:0000:00:00
ARGUS22026-09-05 11:47:4527.72642-82.3550829°9km/h10467m4.6m/s-36.1°C0%0hPa0V00:00:0000:00:0000:00:00
ARGUS22026-09-05 11:47:2527.72599-82.3552562°9km/h10360m5.3m/s-35.3°C0%0hPa0V00:00:0000:00:0000:00:00
ARGUS22026-09-05 11:47:0327.72569-82.35513295°11km/h10244m5.7m/s-34.2°C0%0hPa0V00:00:0000:00:0000:00:00
ARGUS22026-09-05 11:46:4227.72533-82.35465275°13km/h10139m4.6m/s-33.3°C0%0hPa0V00:00:0000:00:0000:00:00
ARGUS22026-09-05 11:46:2127.72501-82.35420289°5km/h10045m4.7m/s-32.5°C0%0hPa0V00:00:0000:00:0000:00:00
ARGUS22026-09-05 11:46:0127.72473-82.35367291°20km/h9947m4.9m/s-31.6°C0%0hPa0V00:00:0000:00:0000:00:00
ARGUS22026-09-05 11:45:3927.72448-82.35312290°9km/h9845m4.0m/s-30.8°C0%0hPa0V00:00:0000:00:0000:00:00
ARGUS22026-09-05 11:45:1927.72443-82.35251272°13km/h9742m5.8m/s-29.9°C0%0hPa0V00:00:0000:00:0000:00:00
ARGUS22026-09-05 11:44:5927.72427-82.35202272°5km/h9649m3.8m/s-29.2°C0%0hPa0V00:00:0000:00:0000:00:00
ARGUS22026-09-05 11:44:3727.72399-82.35159310°16km/h9560m3.9m/s-28.3°C0%0hPa0V00:00:0000:00:0000:00:00
ARGUS22026-09-05 11:44:1527.72364-82.35126323°7km/h9472m3.9m/s-27.6°C0%0hPa0V00:00:0000:00:0000:00:00
ARGUS22026-09-05 11:43:5027.72319-82.35097311°13km/h9366m4.1m/s-26.8°C0%0hPa0V00:00:0000:00:0000:00:00
ARGUS22026-09-05 11:42:5027.72230-82.350325km/h9114m4.2m/s-25.6°C0%0hPa0V00:00:0000:00:0000:00:00
ARGUS22026-09-05 11:42:2827.72186-82.3502411km/h9034m4.8m/s-25.1°C0%0hPa0V00:00:0000:00:0000:00:00
ARGUS22026-09-05 11:42:0827.72145-82.35013340°11km/h8959m3.5m/s-24.6°C0%0hPa0V00:00:0000:00:0000:00:00
ARGUS22026-09-05 11:41:4727.72097-82.3501466°16km/h8874m4.4m/s-24.1°C0%0hPa0V00:00:0000:00:0000:00:00
ARGUS22026-09-05 11:41:2527.72054-82.35039345°7km/h8786m3.5m/s-23.5°C0%0hPa0V00:00:0000:00:0000:00:00
ARGUS22026-09-05 11:41:0427.72008-82.3509760°22km/h8706m3.9m/s-22.9°C0%0hPa0V00:00:0000:00:0000:00:00
ARGUS22026-09-05 11:40:4327.71980-82.35129337°5km/h8612m4.3m/s-22.5°C0%0hPa0V00:00:0000:00:0000:00:00
ARGUS22026-09-05 11:40:2327.71959-82.3515086°20km/h8527m3.4m/s-22.2°C0%0hPa0V00:00:0000:00:0000:00:00
ARGUS22026-09-05 11:40:0227.71932-82.35201128°7km/h8432m4.3m/s-21.7°C0%0hPa0V00:00:0000:00:0000:00:00
ARGUS22026-09-05 11:39:3627.71934-82.35243247°7km/h8328m5.2m/s0°C0%0hPa0V00:00:0000:00:0000:00:00
ARGUS22026-09-05 11:38:5827.71941-82.35281179°4km/h8147m3.9m/s-19.3°C0%0hPa0V00:00:0000:00:0000:00:00
ARGUS22026-09-05 11:36:1327.72077-82.35514158°11km/h7459m4.5m/s-14.9°C0%0hPa0V00:00:0000:00:0000:00:00
ARGUS22026-09-05 11:35:5227.72118-82.35549135°5km/h7372m5.2m/s-14.3°C0%0hPa0V00:00:0000:00:0000:00:00
ARGUS22026-09-05 11:35:3127.72156-82.35586159°15km/h7286m3.5m/s-13.7°C0%0hPa0V00:00:0000:00:0000:00:00
ARGUS22026-09-05 11:35:1027.72197-82.35625143°5km/h7200m4.8m/s-13.2°C0%0hPa0V00:00:0000:00:0000:00:00
ARGUS22026-09-05 11:34:5027.72245-82.35660166°11km/h7091m6.7m/s-12.6°C0%0hPa0V00:00:0000:00:0000:00:00
ARGUS22026-09-05 11:34:2927.72295-82.35676166°9km/h6989m4.5m/s-12.2°C0%0hPa0V00:00:0000:00:0000:00:00
ARGUS22026-09-05 11:34:0927.72338-82.35684151°7km/h6890m4.8m/s-11.9°C0%0hPa0V00:00:0000:00:0000:00:00
ARGUS22026-09-05 11:33:4927.72377-82.3571585°11km/h6802m4.6m/s-11.2°C0%0hPa0V00:00:0000:00:0000:00:00
ARGUS22026-09-05 11:33:2827.72392-82.35783110°15km/h6721m4.3m/s-10.9°C0%0hPa0V00:00:0000:00:0000:00:00
ARGUS22026-09-05 11:33:0727.72413-82.3585886°15km/h6625m2.8m/s-10.2°C0%0hPa0V00:00:0000:00:0000:00:00
ARGUS22026-09-05 11:32:4727.72419-82.35964100°18km/h6529m4.9m/s-9.6°C0%0hPa0V00:00:0000:00:0000:00:00
ARGUS22026-09-05 11:32:2727.72428-82.36073106°11km/h6445m3.1m/s-9.3°C0%0hPa0V00:00:0000:00:0000:00:00
ARGUS22026-09-05 11:32:0627.72443-82.36172118°11km/h6370m2.8m/s-8.9°C0%0hPa0V00:00:0000:00:0000:00:00
ARGUS22026-09-05 11:31:4627.72458-82.36284102°22km/h6288m4.9m/s-8.5°C0%0hPa0V00:00:0000:00:0000:00:00
ARGUS22026-09-05 11:31:2627.72479-82.3640398°26km/h6198m5.6m/s-7.8°C0%0hPa0V00:00:0000:00:0000:00:00
ARGUS22026-09-05 11:31:0527.72469-82.3653498°20km/h6095m4.6m/s-7.1°C0%0hPa0V00:00:0000:00:0000:00:00
ARGUS22026-09-05 11:30:4427.72454-82.3665779°18km/h6013m5.0m/s-6.6°C0%0hPa0V00:00:0000:00:0000:00:00
ARGUS22026-09-05 11:30:2427.72435-82.3678279°16km/h5932m4.6m/s-6.1°C0%0hPa0V00:00:0000:00:0000:00:00
ARGUS22026-09-05 11:29:4227.72389-82.3707367°33km/h5774m4.1m/s-5.3°C0%0hPa0V00:00:0000:00:0000:00:00
ARGUS22026-09-05 11:29:2227.72386-82.3719187°20km/h5682m4.5m/s-5.0°C0%0hPa0V00:00:0000:00:0000:00:00
ARGUS22026-09-05 11:29:0127.72360-82.3728888°33km/h5594m5.2m/s-4.8°C0%0hPa0V00:00:0000:00:0000:00:00
ARGUS22026-09-05 11:28:4127.72338-82.3736478°22km/h5478m5.4m/s-4.0°C0%0hPa0V00:00:0000:00:0000:00:00
ARGUS22026-09-05 11:28:1927.72290-82.3743095°24km/h5383m2.9m/s-3.6°C0%0hPa0V00:00:0000:00:0000:00:00
ARGUS22026-09-05 11:27:5827.72265-82.3749983°16km/h5294m3.1m/s-3.0°C0%0hPa0V00:00:0000:00:0000:00:00
ARGUS22026-09-05 11:27:3327.72228-82.3760230°20km/h5177m7.5m/s-2.5°C0%0hPa0V00:00:0000:00:0000:00:00
ARGUS22026-09-05 11:27:1127.72187-82.3765479°27km/h5066m4.7m/s-1.8°C0%0hPa0V00:00:0000:00:0000:00:00
ARGUS22026-09-05 11:26:5127.72168-82.3771397°20km/h4962m7.9m/s-0.9°C0%0hPa0V00:00:0000:00:0000:00:00
ARGUS22026-09-05 11:26:3127.72161-82.37784361°7km/h4874m3.4m/s-0.3°C0%0hPa0V00:00:0000:00:0000:00:00
ARGUS22026-09-05 11:26:1027.72157-82.3786261°11km/h4788m5.5m/s0.0°C0%0hPa0V00:00:0000:00:0000:00:00
ARGUS22026-09-05 11:25:4927.72160-82.3791373°11km/h4697m3.9m/s0.6°C0%0hPa0V00:00:0000:00:0000:00:00
ARGUS22026-09-05 11:25:2927.72173-82.37936245°5km/h4597m2.7m/s1.2°C0%0hPa0V00:00:0000:00:0000:00:00
ARGUS22026-09-05 11:25:0827.72188-82.37981135°16km/h4498m4.2m/s1.7°C0%0hPa0V00:00:0000:00:0000:00:00
ARGUS22026-09-05 11:24:4827.72198-82.3802163°9km/h4390m3.6m/s2.5°C0%0hPa0V00:00:0000:00:0000:00:00
ARGUS22026-09-05 11:24:2627.72204-82.38013332°16km/h4285m6.0m/s3.2°C0%0hPa0V00:00:0000:00:0000:00:00
ARGUS22026-09-05 11:24:0527.72208-82.38038170°5km/h4179m4.9m/s4.0°C0%0hPa0V00:00:0000:00:0000:00:00
ARGUS22026-09-05 11:23:2327.72202-82.3807914°15km/h3940m5.2m/s5.9°C0%0hPa0V00:00:0000:00:0000:00:00
ARGUS22026-09-05 11:22:4827.72177-82.38136225°4km/h3730m3.0m/s7.2°C0%0hPa0V00:00:0000:00:0000:00:00
ARGUS22026-09-05 11:22:0827.72156-82.3822167°22km/h3532m3.7m/s8.5°C0%0hPa0V00:00:0000:00:0000:00:00
ARGUS22026-09-05 11:21:4727.72116-82.38273107°13km/h3420m5.9m/s8.7°C0%0hPa0V00:00:0000:00:0000:00:00
ARGUS22026-09-05 11:16:5327.71525-82.3911662°9km/h1914m5.0m/s16.4°C0%0hPa0V00:00:0000:00:0000:00:00
ARGUS22026-09-05 11:16:3327.71475-82.3918361°9km/h1813m4.3m/s17.0°C0%0hPa0V00:00:0000:00:0000:00:00


GPX KML Map

© wettersonde.net (DO2JMG) - 2026  -  -